sensor_id;sensor_type;location;lat;lon;timestamp;pressure;altitude;pressure_sealevel;temperature;humidity
9423;BME280;4750;49.506;10.400;2022-11-15T00:00:17;97878.59;;;3.77;94.58
9423;BME280;4750;49.506;10.400;2022-11-15T00:03:23;97889.13;;;3.96;94.88
9423;BME280;4750;49.506;10.400;2022-11-15T00:06:26;97867.22;;;3.75;94.75
9423;BME280;4750;49.506;10.400;2022-11-15T00:09:29;97845.28;;;3.77;94.78
9423;BME280;4750;49.506;10.400;2022-11-15T00:12:31;97868.44;;;3.97;94.75
9423;BME280;4750;49.506;10.400;2022-11-15T00:15:36;97852.75;;;3.94;95.01
9423;BME280;4750;49.506;10.400;2022-11-15T00:18:39;97869.38;;;4.05;95.16
9423;BME280;4750;49.506;10.400;2022-11-15T00:21:42;97846.41;;;4.05;95.18
9423;BME280;4750;49.506;10.400;2022-11-15T00:24:45;97871.03;;;4.31;95.30
9423;BME280;4750;49.506;10.400;2022-11-15T00:27:48;97874.78;;;4.34;95.44
9423;BME280;4750;49.506;10.400;2022-11-15T00:30:51;97881.28;;;4.47;95.79
9423;BME280;4750;49.506;10.400;2022-11-15T00:33:54;97893.06;;;4.65;95.79
9423;BME280;4750;49.506;10.400;2022-11-15T00:36:57;97892.03;;;4.68;95.89
9423;BME280;4750;49.506;10.400;2022-11-15T00:39:59;97854.72;;;4.52;96.06
9423;BME280;4750;49.506;10.400;2022-11-15T00:43:02;97883.13;;;4.75;96.32
9423;BME280;4750;49.506;10.400;2022-11-15T00:46:05;97862.94;;;4.69;96.50
9423;BME280;4750;49.506;10.400;2022-11-15T00:49:07;97848.06;;;4.67;96.50
9423;BME280;4750;49.506;10.400;2022-11-15T00:52:10;97874.97;;;4.83;96.39
9423;BME280;4750;49.506;10.400;2022-11-15T00:55:15;97850.81;;;4.72;96.29
9423;BME280;4750;49.506;10.400;2022-11-15T00:58:18;97849.28;;;4.71;96.38
9423;BME280;4750;49.506;10.400;2022-11-15T01:01:21;97851.06;;;4.69;96.60
9423;BME280;4750;49.506;10.400;2022-11-15T01:04:23;97809.28;;;4.50;96.44
9423;BME280;4750;49.506;10.400;2022-11-15T01:07:26;97838.25;;;4.60;96.64
9423;BME280;4750;49.506;10.400;2022-11-15T01:10:30;97823.66;;;4.54;96.46
9423;BME280;4750;49.506;10.400;2022-11-15T01:13:34;97853.97;;;4.88;96.66
9423;BME280;4750;49.506;10.400;2022-11-15T01:16:37;97840.53;;;4.92;96.84
9423;BME280;4750;49.506;10.400;2022-11-15T01:19:40;97856.09;;;5.06;96.63
9423;BME280;4750;49.506;10.400;2022-11-15T01:22:42;97839.50;;;4.95;96.16
9423;BME280;4750;49.506;10.400;2022-11-15T01:25:45;97845.06;;;4.95;96.44
9423;BME280;4750;49.506;10.400;2022-11-15T01:28:48;97849.59;;;4.98;96.51
9423;BME280;4750;49.506;10.400;2022-11-15T01:31:53;97851.28;;;5.07;96.46
9423;BME280;4750;49.506;10.400;2022-11-15T01:34:56;97831.84;;;5.01;96.34
9423;BME280;4750;49.506;10.400;2022-11-15T01:37:59;97815.16;;;5.01;96.64
9423;BME280;4750;49.506;10.400;2022-11-15T01:41:02;97812.59;;;5.03;96.02
9423;BME280;4750;49.506;10.400;2022-11-15T01:47:52;97823.63;;;5.14;96.20
9423;BME280;4750;49.506;10.400;2022-11-15T01:50:56;97804.19;;;5.09;95.95
9423;BME280;4750;49.506;10.400;2022-11-15T01:54:06;97827.44;;;5.11;96.30
9423;BME280;4750;49.506;10.400;2022-11-15T01:57:11;97822.09;;;5.19;96.25
9423;BME280;4750;49.506;10.400;2022-11-15T02:00:16;97798.84;;;4.86;95.85
9423;BME280;4750;49.506;10.400;2022-11-15T02:03:20;97825.28;;;4.98;95.87
9423;BME280;4750;49.506;10.400;2022-11-15T02:06:26;97789.06;;;4.79;95.55
9423;BME280;4750;49.506;10.400;2022-11-15T02:09:29;97798.75;;;4.67;95.86
9423;BME280;4750;49.506;10.400;2022-11-15T02:12:33;97794.72;;;4.68;95.84
9423;BME280;4750;49.506;10.400;2022-11-15T02:15:40;97776.78;;;4.63;95.95
9423;BME280;4750;49.506;10.400;2022-11-15T02:18:57;97807.72;;;4.85;96.01
9423;BME280;4750;49.506;10.400;2022-11-15T02:25:37;97781.59;;;4.63;95.94
9423;BME280;4750;49.506;10.400;2022-11-15T02:28:44;97784.38;;;4.63;95.88
9423;BME280;4750;49.506;10.400;2022-11-15T02:32:03;97780.09;;;4.62;95.66
9423;BME280;4750;49.506;10.400;2022-11-15T02:38:49;97775.91;;;4.50;95.64
9423;BME280;4750;49.506;10.400;2022-11-15T02:42:01;97765.09;;;4.40;95.58
9423;BME280;4750;49.506;10.400;2022-11-15T02:45:07;97750.59;;;4.23;95.96
9423;BME280;4750;49.506;10.400;2022-11-15T02:48:14;97764.97;;;4.27;95.76
9423;BME280;4750;49.506;10.400;2022-11-15T02:51:18;97762.75;;;4.20;95.70
9423;BME280;4750;49.506;10.400;2022-11-15T02:54:26;97758.19;;;4.17;95.70
9423;BME280;4750;49.506;10.400;2022-11-15T02:57:51;97763.00;;;4.16;95.59
9423;BME280;4750;49.506;10.400;2022-11-15T03:07:47;97741.72;;;3.83;95.48
9423;BME280;4750;49.506;10.400;2022-11-15T03:11:15;97745.56;;;3.74;95.81
9423;BME280;4750;49.506;10.400;2022-11-15T03:14:24;97748.34;;;3.74;95.76
9423;BME280;4750;49.506;10.400;2022-11-15T03:17:47;97758.47;;;3.66;95.51
9423;BME280;4750;49.506;10.400;2022-11-15T03:20:52;97760.03;;;3.61;95.93
9423;BME280;4750;49.506;10.400;2022-11-15T03:23:58;97758.50;;;3.60;95.51
9423;BME280;4750;49.506;10.400;2022-11-15T03:27:05;97747.78;;;3.34;95.45
9423;BME280;4750;49.506;10.400;2022-11-15T03:30:10;97743.28;;;3.19;95.65
9423;BME280;4750;49.506;10.400;2022-11-15T03:33:14;97722.91;;;3.05;95.26
9423;BME280;4750;49.506;10.400;2022-11-15T03:36:17;97750.06;;;3.24;95.91
9423;BME280;4750;49.506;10.400;2022-11-15T03:39:21;97729.72;;;2.99;95.50
9423;BME280;4750;49.506;10.400;2022-11-15T03:42:38;97732.75;;;3.01;95.47
9423;BME280;4750;49.506;10.400;2022-11-15T03:45:51;97719.91;;;2.86;95.25
9423;BME280;4750;49.506;10.400;2022-11-15T03:49:07;97727.47;;;2.97;95.70
9423;BME280;4750;49.506;10.400;2022-11-15T03:52:11;97701.78;;;2.85;95.53
9423;BME280;4750;49.506;10.400;2022-11-15T03:55:19;97728.19;;;3.03;95.53
9423;BME280;4750;49.506;10.400;2022-11-15T03:58:22;97717.41;;;2.88;95.67
9423;BME280;4750;49.506;10.400;2022-11-15T04:01:25;97730.75;;;2.90;95.70
9423;BME280;4750;49.506;10.400;2022-11-15T04:04:28;97708.38;;;2.77;95.57
9423;BME280;4750;49.506;10.400;2022-11-15T04:07:31;97728.72;;;2.90;95.75
9423;BME280;4750;49.506;10.400;2022-11-15T04:10:34;97706.06;;;2.86;95.51
9423;BME280;4750;49.506;10.400;2022-11-15T04:13:37;97698.56;;;2.58;95.24
9423;BME280;4750;49.506;10.400;2022-11-15T04:16:40;97692.28;;;2.52;95.43
9423;BME280;4750;49.506;10.400;2022-11-15T04:19:42;97707.63;;;2.65;95.59
9423;BME280;4750;49.506;10.400;2022-11-15T04:23:16;97723.72;;;2.78;95.81
9423;BME280;4750;49.506;10.400;2022-11-15T04:26:43;97716.91;;;2.84;95.84
9423;BME280;4750;49.506;10.400;2022-11-15T04:29:45;97685.94;;;2.69;95.88
9423;BME280;4750;49.506;10.400;2022-11-15T04:32:48;97703.56;;;2.77;96.06
9423;BME280;4750;49.506;10.400;2022-11-15T04:35:51;97686.44;;;2.73;96.17
9423;BME280;4750;49.506;10.400;2022-11-15T04:39:13;97684.63;;;2.87;96.15
9423;BME280;4750;49.506;10.400;2022-11-15T04:42:16;97702.78;;;2.88;96.09
9423;BME280;4750;49.506;10.400;2022-11-15T04:45:19;97669.28;;;2.74;96.03
9423;BME280;4750;49.506;10.400;2022-11-15T04:48:22;97673.59;;;2.75;95.96
9423;BME280;4750;49.506;10.400;2022-11-15T04:51:25;97664.50;;;2.69;96.28
9423;BME280;4750;49.506;10.400;2022-11-15T04:54:28;97664.06;;;2.60;96.23
9423;BME280;4750;49.506;10.400;2022-11-15T04:57:30;97687.44;;;2.75;96.39
9423;BME280;4750;49.506;10.400;2022-11-15T05:00:33;97657.97;;;2.72;96.27
9423;BME280;4750;49.506;10.400;2022-11-15T05:03:36;97683.66;;;2.79;96.38
9423;BME280;4750;49.506;10.400;2022-11-15T05:06:58;97671.56;;;2.70;96.18
9423;BME280;4750;49.506;10.400;2022-11-15T05:10:01;97665.03;;;2.56;96.12
9423;BME280;4750;49.506;10.400;2022-11-15T05:13:03;97678.41;;;2.58;96.40
9423;BME280;4750;49.506;10.400;2022-11-15T05:16:06;97640.16;;;2.17;96.44
9423;BME280;4750;49.506;10.400;2022-11-15T05:19:09;97686.25;;;2.43;96.30
9423;BME280;4750;49.506;10.400;2022-11-15T05:22:12;97659.56;;;2.17;96.28
9423;BME280;4750;49.506;10.400;2022-11-15T05:25:15;97654.28;;;2.13;96.05
9423;BME280;4750;49.506;10.400;2022-11-15T05:28:18;97666.59;;;2.29;96.15
9423;BME280;4750;49.506;10.400;2022-11-15T05:31:22;97639.94;;;2.15;96.07
9423;BME280;4750;49.506;10.400;2022-11-15T05:34:25;97657.03;;;2.30;96.39
9423;BME280;4750;49.506;10.400;2022-11-15T05:37:29;97618.03;;;2.00;96.06
9423;BME280;4750;49.506;10.400;2022-11-15T05:40:33;97630.09;;;2.02;96.18
9423;BME280;4750;49.506;10.400;2022-11-15T05:43:38;97656.78;;;2.22;96.51
9423;BME280;4750;49.506;10.400;2022-11-15T05:46:43;97667.63;;;2.26;96.07
9423;BME280;4750;49.506;10.400;2022-11-15T05:49:47;97652.03;;;2.12;96.26
9423;BME280;4750;49.506;10.400;2022-11-15T05:52:54;97632.13;;;2.02;96.20
9423;BME280;4750;49.506;10.400;2022-11-15T05:55:57;97630.63;;;2.06;95.85
9423;BME280;4750;49.506;10.400;2022-11-15T05:58:59;97636.94;;;2.01;96.55
9423;BME280;4750;49.506;10.400;2022-11-15T06:02:03;97618.78;;;1.89;96.38
9423;BME280;4750;49.506;10.400;2022-11-15T06:05:05;97622.56;;;1.97;96.57
9423;BME280;4750;49.506;10.400;2022-11-15T06:08:08;97650.78;;;2.07;96.07
9423;BME280;4750;49.506;10.400;2022-11-15T06:11:11;97650.00;;;2.01;96.01
9423;BME280;4750;49.506;10.400;2022-11-15T06:14:14;97634.91;;;2.08;96.39
9423;BME280;4750;49.506;10.400;2022-11-15T06:17:17;97636.91;;;2.13;96.13
9423;BME280;4750;49.506;10.400;2022-11-15T06:20:19;97657.75;;;2.42;96.14
9423;BME280;4750;49.506;10.400;2022-11-15T06:23:22;97654.50;;;2.32;96.46
9423;BME280;4750;49.506;10.400;2022-11-15T06:26:25;97666.84;;;2.48;96.56
9423;BME280;4750;49.506;10.400;2022-11-15T06:29:27;97661.03;;;2.40;96.56
9423;BME280;4750;49.506;10.400;2022-11-15T06:32:30;97648.00;;;2.18;96.76
9423;BME280;4750;49.506;10.400;2022-11-15T06:35:34;97667.84;;;2.34;96.70
9423;BME280;4750;49.506;10.400;2022-11-15T06:38:38;97637.16;;;2.03;96.57
9423;BME280;4750;49.506;10.400;2022-11-15T06:41:41;97653.53;;;2.01;96.26
9423;BME280;4750;49.506;10.400;2022-11-15T06:44:46;97630.38;;;1.82;96.68
9423;BME280;4750;49.506;10.400;2022-11-15T06:47:49;97654.00;;;2.17;96.59
9423;BME280;4750;49.506;10.400;2022-11-15T06:50:53;97659.56;;;2.17;96.95
9423;BME280;4750;49.506;10.400;2022-11-15T06:53:57;97599.41;;;1.78;96.71
9423;BME280;4750;49.506;10.400;2022-11-15T06:56:59;97651.75;;;2.21;96.75
9423;BME280;4750;49.506;10.400;2022-11-15T07:00:04;97662.28;;;2.51;96.88
9423;BME280;4750;49.506;10.400;2022-11-15T07:03:07;97658.75;;;2.56;97.36
9423;BME280;4750;49.506;10.400;2022-11-15T07:06:10;97684.81;;;3.06;97.30
9423;BME280;4750;49.506;10.400;2022-11-15T07:09:13;97678.44;;;3.28;97.51
9423;BME280;4750;49.506;10.400;2022-11-15T07:12:15;97653.50;;;3.22;97.95
9423;BME280;4750;49.506;10.400;2022-11-15T07:15:20;97680.28;;;3.61;98.14
9423;BME280;4750;49.506;10.400;2022-11-15T07:18:23;97670.09;;;3.75;97.96
9423;BME280;4750;49.506;10.400;2022-11-15T07:21:26;97684.06;;;4.00;98.28
9423;BME280;4750;49.506;10.400;2022-11-15T07:24:29;97681.44;;;4.13;98.01
9423;BME280;4750;49.506;10.400;2022-11-15T07:27:31;97648.34;;;4.16;98.55
9423;BME280;4750;49.506;10.400;2022-11-15T07:30:34;97660.44;;;4.48;98.42
9423;BME280;4750;49.506;10.400;2022-11-15T07:33:37;97657.38;;;4.77;98.61
9423;BME280;4750;49.506;10.400;2022-11-15T07:36:40;97652.34;;;4.94;98.52
9423;BME280;4750;49.506;10.400;2022-11-15T07:39:43;97647.22;;;5.23;98.66
9423;BME280;4750;49.506;10.400;2022-11-15T07:42:46;97672.41;;;5.69;98.69
9423;BME280;4750;49.506;10.400;2022-11-15T07:45:55;97652.44;;;5.84;98.46
9423;BME280;4750;49.506;10.400;2022-11-15T07:48:58;97657.09;;;6.14;98.10
9423;BME280;4750;49.506;10.400;2022-11-15T07:52:01;97666.47;;;6.43;98.23
9423;BME280;4750;49.506;10.400;2022-11-15T07:55:04;97654.94;;;6.66;97.66
9423;BME280;4750;49.506;10.400;2022-11-15T07:58:10;97669.41;;;7.04;97.41
9423;BME280;4750;49.506;10.400;2022-11-15T08:01:13;97665.00;;;7.22;96.50
9423;BME280;4750;49.506;10.400;2022-11-15T08:04:16;97643.00;;;7.19;95.14
9423;BME280;4750;49.506;10.400;2022-11-15T08:07:19;97659.41;;;7.22;93.83
9423;BME280;4750;49.506;10.400;2022-11-15T08:10:22;97624.75;;;7.18;92.34
9423;BME280;4750;49.506;10.400;2022-11-15T08:13:25;97634.59;;;7.67;91.05
9423;BME280;4750;49.506;10.400;2022-11-15T08:16:27;97627.84;;;7.62;89.67
9423;BME280;4750;49.506;10.400;2022-11-15T08:19:30;97649.50;;;7.83;88.46
9423;BME280;4750;49.506;10.400;2022-11-15T08:22:33;97635.84;;;7.79;86.96
9423;BME280;4750;49.506;10.400;2022-11-15T08:25:37;97629.47;;;7.92;86.18
9423;BME280;4750;49.506;10.400;2022-11-15T08:28:40;97648.97;;;8.26;85.01
9423;BME280;4750;49.506;10.400;2022-11-15T08:31:42;97622.44;;;8.41;84.12
9423;BME280;4750;49.506;10.400;2022-11-15T08:34:45;97650.66;;;8.72;83.46
9423;BME280;4750;49.506;10.400;2022-11-15T08:37:48;97647.47;;;8.68;82.56
9423;BME280;4750;49.506;10.400;2022-11-15T08:40:53;97601.53;;;8.63;81.61
9423;BME280;4750;49.506;10.400;2022-11-15T08:44:01;97627.13;;;9.04;80.55
9423;BME280;4750;49.506;10.400;2022-11-15T08:47:04;97601.53;;;9.00;79.43
9423;BME280;4750;49.506;10.400;2022-11-15T08:50:08;97612.75;;;9.00;79.20
9423;BME280;4750;49.506;10.400;2022-11-15T08:53:11;97609.22;;;9.07;78.87
9423;BME280;4750;49.506;10.400;2022-11-15T08:56:15;97618.72;;;9.48;78.26
9423;BME280;4750;49.506;10.400;2022-11-15T08:59:18;97607.78;;;9.81;77.63
9423;BME280;4750;49.506;10.400;2022-11-15T09:02:21;97612.69;;;10.11;76.74
9423;BME280;4750;49.506;10.400;2022-11-15T09:05:24;97591.94;;;10.22;76.00
9423;BME280;4750;49.506;10.400;2022-11-15T09:08:30;97589.16;;;10.38;74.96
9423;BME280;4750;49.506;10.400;2022-11-15T09:11:33;97564.25;;;10.42;74.15
9423;BME280;4750;49.506;10.400;2022-11-15T09:14:36;97591.72;;;10.66;73.54
9423;BME280;4750;49.506;10.400;2022-11-15T09:17:39;97584.41;;;10.79;72.36
9423;BME280;4750;49.506;10.400;2022-11-15T09:20:41;97571.75;;;11.11;71.70
9423;BME280;4750;49.506;10.400;2022-11-15T09:23:44;97595.94;;;11.80;70.53
9423;BME280;4750;49.506;10.400;2022-11-15T09:26:50;97609.84;;;12.11;69.36
9423;BME280;4750;49.506;10.400;2022-11-15T09:29:53;97594.19;;;11.59;68.50
9423;BME280;4750;49.506;10.400;2022-11-15T09:32:55;97593.38;;;11.33;68.32
9423;BME280;4750;49.506;10.400;2022-11-15T09:36:04;97574.22;;;10.99;68.60
9423;BME280;4750;49.506;10.400;2022-11-15T09:39:07;97588.66;;;10.95;68.79
9423;BME280;4750;49.506;10.400;2022-11-15T09:42:30;97606.47;;;10.82;70.13
9423;BME280;4750;49.506;10.400;2022-11-15T09:46:00;97611.75;;;10.71;71.55
9423;BME280;4750;49.506;10.400;2022-11-15T09:49:23;97581.44;;;10.30;72.67
9423;BME280;4750;49.506;10.400;2022-11-15T09:52:44;97592.31;;;10.19;74.13
9423;BME280;4750;49.506;10.400;2022-11-15T09:55:38;97572.09;;;10.05;74.61
9423;BME280;4750;49.506;10.400;2022-11-15T09:58:40;97593.25;;;10.21;75.39
9423;BME280;4750;49.506;10.400;2022-11-15T10:01:43;97548.00;;;10.02;75.87
9423;BME280;4750;49.506;10.400;2022-11-15T10:04:28;97557.53;;;10.37;75.53
9423;BME280;4750;49.506;10.400;2022-11-15T10:07:17;97498.09;;;9.77;75.55
9423;BME280;4750;49.506;10.400;2022-11-15T10:10:25;97556.97;;;10.39;76.61
9423;BME280;4750;49.506;10.400;2022-11-15T10:13:16;97567.50;;;11.43;76.09
9423;BME280;4750;49.506;10.400;2022-11-15T10:16:28;97560.16;;;12.05;74.47
9423;BME280;4750;49.506;10.400;2022-11-15T10:19:41;97557.03;;;12.79;71.90
9423;BME280;4750;49.506;10.400;2022-11-15T10:22:51;97525.66;;;12.48;69.97
9423;BME280;4750;49.506;10.400;2022-11-15T10:25:36;97534.66;;;12.81;69.42
9423;BME280;4750;49.506;10.400;2022-11-15T10:28:29;97550.78;;;12.98;68.59
9423;BME280;4750;49.506;10.400;2022-11-15T10:31:26;97529.41;;;13.13;68.06
9423;BME280;4750;49.506;10.400;2022-11-15T10:34:19;97536.50;;;13.31;66.97
9423;BME280;4750;49.506;10.400;2022-11-15T10:37:03;97523.34;;;13.61;66.19
9423;BME280;4750;49.506;10.400;2022-11-15T10:43:10;97504.28;;;13.52;65.26
9423;BME280;4750;49.506;10.400;2022-11-15T10:46:18;97487.06;;;13.48;65.10
9423;BME280;4750;49.506;10.400;2022-11-15T10:49:31;97515.09;;;13.83;65.00
9423;BME280;4750;49.506;10.400;2022-11-15T10:52:18;97512.63;;;13.32;65.08
9423;BME280;4750;49.506;10.400;2022-11-15T10:58:20;97493.25;;;12.91;66.38
9423;BME280;4750;49.506;10.400;2022-11-15T11:01:32;97484.25;;;12.58;67.01
9423;BME280;4750;49.506;10.400;2022-11-15T11:04:48;97468.69;;;12.39;67.91
9423;BME280;4750;49.506;10.400;2022-11-15T11:07:34;97489.88;;;12.58;68.23
9423;BME280;4750;49.506;10.400;2022-11-15T11:10:21;97492.59;;;12.48;68.15
9423;BME280;4750;49.506;10.400;2022-11-15T11:13:21;97476.06;;;12.35;68.22
9423;BME280;4750;49.506;10.400;2022-11-15T11:16:18;97481.84;;;12.54;68.17
9423;BME280;4750;49.506;10.400;2022-11-15T11:19:31;97473.22;;;12.70;67.96
9423;BME280;4750;49.506;10.400;2022-11-15T11:25:23;97461.94;;;12.70;68.08
9423;BME280;4750;49.506;10.400;2022-11-15T11:31:14;97465.84;;;12.74;67.43
9423;BME280;4750;49.506;10.400;2022-11-15T11:34:19;97467.63;;;12.97;67.74
9423;BME280;4750;49.506;10.400;2022-11-15T11:37:19;97470.28;;;12.95;67.72
9423;BME280;4750;49.506;10.400;2022-11-15T11:40:33;97471.66;;;13.04;67.81
9423;BME280;4750;49.506;10.400;2022-11-15T11:47:00;97464.81;;;13.24;67.19
9423;BME280;4750;49.506;10.400;2022-11-15T11:49:50;97447.44;;;13.18;67.32
9423;BME280;4750;49.506;10.400;2022-11-15T11:52:43;97429.78;;;13.18;67.14
9423;BME280;4750;49.506;10.400;2022-11-15T11:55:40;97450.84;;;13.44;67.20
9423;BME280;4750;49.506;10.400;2022-11-15T11:58:43;97454.00;;;13.58;67.63
9423;BME280;4750;49.506;10.400;2022-11-15T12:01:36;97446.03;;;13.64;67.64
9423;BME280;4750;49.506;10.400;2022-11-15T12:04:27;97454.63;;;13.66;67.50
9423;BME280;4750;49.506;10.400;2022-11-15T12:07:34;97418.38;;;13.53;67.20
9423;BME280;4750;49.506;10.400;2022-11-15T12:10:25;97439.97;;;13.77;67.10
9423;BME280;4750;49.506;10.400;2022-11-15T12:13:24;97432.75;;;13.94;66.88
9423;BME280;4750;49.506;10.400;2022-11-15T12:16:29;97403.47;;;13.89;65.80
9423;BME280;4750;49.506;10.400;2022-11-15T12:19:14;97434.69;;;14.01;65.25
9423;BME280;4750;49.506;10.400;2022-11-15T12:22:12;97403.47;;;13.89;64.92
9423;BME280;4750;49.506;10.400;2022-11-15T12:25:05;97398.28;;;13.86;65.19
9423;BME280;4750;49.506;10.400;2022-11-15T12:27:59;97417.00;;;13.91;64.56
9423;BME280;4750;49.506;10.400;2022-11-15T12:30:59;97402.72;;;13.89;64.61
9423;BME280;4750;49.506;10.400;2022-11-15T12:33:47;97391.72;;;13.83;64.66
9423;BME280;4750;49.506;10.400;2022-11-15T12:36:38;97407.50;;;14.06;64.88
9423;BME280;4750;49.506;10.400;2022-11-15T12:40:03;97391.59;;;14.20;64.62
9423;BME280;4750;49.506;10.400;2022-11-15T12:46:03;97351.66;;;14.04;63.57
9423;BME280;4750;49.506;10.400;2022-11-15T12:48:54;97409.59;;;14.44;62.93
9423;BME280;4750;49.506;10.400;2022-11-15T13:03:17;97359.22;;;14.41;63.61
9423;BME280;4750;49.506;10.400;2022-11-15T13:06:04;97328.59;;;14.37;63.77
9423;BME280;4750;49.506;10.400;2022-11-15T13:08:49;97362.34;;;14.65;63.37
9423;BME280;4750;49.506;10.400;2022-11-15T13:11:46;97358.91;;;14.46;63.51
9423;BME280;4750;49.506;10.400;2022-11-15T13:17:29;97333.78;;;14.70;63.36
9423;BME280;4750;49.506;10.400;2022-11-15T13:23:08;97354.72;;;14.67;62.80
9423;BME280;4750;49.506;10.400;2022-11-15T13:26:12;97324.63;;;14.31;63.45
9423;BME280;4750;49.506;10.400;2022-11-15T13:28:57;97349.56;;;14.63;63.67
9423;BME280;4750;49.506;10.400;2022-11-15T13:31:43;97305.28;;;14.46;63.77
9423;BME280;4750;49.506;10.400;2022-11-15T13:34:30;97310.63;;;14.62;63.44
9423;BME280;4750;49.506;10.400;2022-11-15T13:40:18;97321.34;;;14.34;60.67
9423;BME280;4750;49.506;10.400;2022-11-15T13:43:34;97346.13;;;14.55;58.22
9423;BME280;4750;49.506;10.400;2022-11-15T13:46:28;97337.34;;;14.71;57.09
9423;BME280;4750;49.506;10.400;2022-11-15T13:49:12;97322.09;;;14.44;55.50
9423;BME280;4750;49.506;10.400;2022-11-15T13:51:56;97306.63;;;14.36;55.60
9423;BME280;4750;49.506;10.400;2022-11-15T13:54:56;97306.06;;;14.18;55.32
9423;BME280;4750;49.506;10.400;2022-11-15T13:57:47;97313.34;;;14.01;55.86
9423;BME280;4750;49.506;10.400;2022-11-15T14:00:41;97319.59;;;14.00;55.48
9423;BME280;4750;49.506;10.400;2022-11-15T14:03:34;97325.38;;;13.92;56.26
9423;BME280;4750;49.506;10.400;2022-11-15T14:06:23;97301.16;;;13.50;56.51
9423;BME280;4750;49.506;10.400;2022-11-15T14:11:53;97314.38;;;13.57;57.31
9423;BME280;4750;49.506;10.400;2022-11-15T14:14:45;97294.25;;;13.33;58.29
9423;BME280;4750;49.506;10.400;2022-11-15T14:23:28;97308.25;;;13.51;58.83
9423;BME280;4750;49.506;10.400;2022-11-15T14:26:33;97281.34;;;13.30;58.97
9423;BME280;4750;49.506;10.400;2022-11-15T14:32:15;97292.38;;;13.46;59.20
9423;BME280;4750;49.506;10.400;2022-11-15T14:35:01;97290.16;;;13.44;59.27
9423;BME280;4750;49.506;10.400;2022-11-15T14:37:46;97270.22;;;13.32;59.52
9423;BME280;4750;49.506;10.400;2022-11-15T14:40:30;97212.94;;;13.00;59.87
9423;BME280;4750;49.506;10.400;2022-11-15T14:43:15;97265.47;;;13.25;60.37
9423;BME280;4750;49.506;10.400;2022-11-15T14:45:59;97258.63;;;13.28;61.34
9423;BME280;4750;49.506;10.400;2022-11-15T14:48:44;97244.16;;;12.85;62.13
9423;BME280;4750;49.506;10.400;2022-11-15T14:51:28;97253.25;;;12.93;63.31
9423;BME280;4750;49.506;10.400;2022-11-15T14:54:12;97254.63;;;12.65;63.82
9423;BME280;4750;49.506;10.400;2022-11-15T14:56:56;97266.06;;;12.39;64.89
9423;BME280;4750;49.506;10.400;2022-11-15T14:59:40;97238.31;;;12.09;66.38
9423;BME280;4750;49.506;10.400;2022-11-15T15:02:25;97267.78;;;12.08;67.02
9423;BME280;4750;49.506;10.400;2022-11-15T15:05:27;97275.31;;;11.87;67.99
9423;BME280;4750;49.506;10.400;2022-11-15T15:08:13;97237.88;;;11.50;68.51
9423;BME280;4750;49.506;10.400;2022-11-15T15:10:57;97245.88;;;11.36;69.04
9423;BME280;4750;49.506;10.400;2022-11-15T15:13:42;97220.59;;;11.18;69.83
9423;BME280;4750;49.506;10.400;2022-11-15T15:16:26;97237.03;;;11.22;70.40
9423;BME280;4750;49.506;10.400;2022-11-15T15:19:11;97239.84;;;11.22;71.06
9423;BME280;4750;49.506;10.400;2022-11-15T15:21:54;97253.38;;;11.16;71.69
9423;BME280;4750;49.506;10.400;2022-11-15T15:24:39;97221.22;;;10.92;72.43
9423;BME280;4750;49.506;10.400;2022-11-15T15:27:23;97216.00;;;10.88;73.29
9423;BME280;4750;49.506;10.400;2022-11-15T15:30:07;97217.50;;;10.89;73.57
9423;BME280;4750;49.506;10.400;2022-11-15T15:32:52;97203.13;;;10.85;73.72
9423;BME280;4750;49.506;10.400;2022-11-15T15:35:36;97191.06;;;10.75;72.97
9423;BME280;4750;49.506;10.400;2022-11-15T15:38:20;97212.22;;;10.93;72.13
9423;BME280;4750;49.506;10.400;2022-11-15T15:41:11;97163.34;;;10.54;70.94
9423;BME280;4750;49.506;10.400;2022-11-15T15:43:56;97219.50;;;10.96;70.92
9423;BME280;4750;49.506;10.400;2022-11-15T15:46:40;97220.97;;;10.97;70.42
9423;BME280;4750;49.506;10.400;2022-11-15T15:49:23;97170.47;;;10.72;70.59
9423;BME280;4750;49.506;10.400;2022-11-15T15:52:07;97208.34;;;11.06;69.92
9423;BME280;4750;49.506;10.400;2022-11-15T15:54:51;97195.03;;;11.07;69.43
9423;BME280;4750;49.506;10.400;2022-11-15T15:57:35;97197.84;;;11.07;68.69
9423;BME280;4750;49.506;10.400;2022-11-15T16:00:21;97173.53;;;10.84;68.76
9423;BME280;4750;49.506;10.400;2022-11-15T16:03:07;97159.59;;;10.76;68.42
9423;BME280;4750;49.506;10.400;2022-11-15T16:05:51;97174.56;;;10.79;68.67
9423;BME280;4750;49.506;10.400;2022-11-15T16:08:35;97173.72;;;10.86;68.63
9423;BME280;4750;49.506;10.400;2022-11-15T16:11:19;97155.94;;;10.66;68.64
9423;BME280;4750;49.506;10.400;2022-11-15T16:14:03;97155.69;;;10.72;68.51
9423;BME280;4750;49.506;10.400;2022-11-15T16:16:47;97167.28;;;10.93;68.32
9423;BME280;4750;49.506;10.400;2022-11-15T16:19:31;97167.78;;;10.99;68.02
9423;BME280;4750;49.506;10.400;2022-11-15T16:22:15;97168.53;;;11.00;68.14
9423;BME280;4750;49.506;10.400;2022-11-15T16:24:59;97154.41;;;10.90;67.89
9423;BME280;4750;49.506;10.400;2022-11-15T16:27:44;97154.56;;;10.92;68.20
9423;BME280;4750;49.506;10.400;2022-11-15T16:30:30;97145.22;;;10.90;68.21
9423;BME280;4750;49.506;10.400;2022-11-15T16:33:14;97129.53;;;10.69;68.22
9423;BME280;4750;49.506;10.400;2022-11-15T16:35:58;97142.66;;;10.84;68.37
9423;BME280;4750;49.506;10.400;2022-11-15T16:38:42;97157.97;;;10.91;68.27
9423;BME280;4750;49.506;10.400;2022-11-15T16:41:26;97170.09;;;10.93;68.21
9423;BME280;4750;49.506;10.400;2022-11-15T16:44:10;97173.66;;;10.94;68.26
9423;BME280;4750;49.506;10.400;2022-11-15T16:46:54;97151.84;;;10.84;67.90
9423;BME280;4750;49.506;10.400;2022-11-15T16:49:42;97169.19;;;10.91;68.12
9423;BME280;4750;49.506;10.400;2022-11-15T16:52:26;97151.19;;;10.76;68.21
9423;BME280;4750;49.506;10.400;2022-11-15T16:55:10;97160.59;;;10.89;68.14
9423;BME280;4750;49.506;10.400;2022-11-15T16:57:55;97164.50;;;10.93;68.07
9423;BME280;4750;49.506;10.400;2022-11-15T17:00:44;97145.72;;;10.78;67.89
9423;BME280;4750;49.506;10.400;2022-11-15T17:03:28;97131.44;;;10.66;68.10
9423;BME280;4750;49.506;10.400;2022-11-15T17:06:15;97141.41;;;10.77;67.68
9423;BME280;4750;49.506;10.400;2022-11-15T17:09:01;97133.56;;;10.76;67.44
9423;BME280;4750;49.506;10.400;2022-11-15T17:11:45;97121.84;;;10.70;67.65
9423;BME280;4750;49.506;10.400;2022-11-15T17:14:29;97122.34;;;10.76;67.52
9423;BME280;4750;49.506;10.400;2022-11-15T17:17:13;97132.75;;;10.83;67.13